sensor_id;sensor_type;location;lat;lon;timestamp;P1;P2;P0
76238;PMS7003;65043;48.392;-4.472;2023-10-08T00:01:34;11.25;7.50;5.00
76238;PMS7003;65043;48.392;-4.472;2023-10-08T00:04:00;8.00;7.00;4.00
76238;PMS7003;65043;48.392;-4.472;2023-10-08T00:06:29;12.50;7.50;3.75
76238;PMS7003;65043;48.392;-4.472;2023-10-08T00:08:55;10.00;6.25;3.50
76238;PMS7003;65043;48.392;-4.472;2023-10-08T00:11:25;7.75;7.75;6.00
76238;PMS7003;65043;48.392;-4.472;2023-10-08T00:13:54;9.50;7.25;5.50
76238;PMS7003;65043;48.392;-4.472;2023-10-08T00:16:21;9.75;7.25;6.25
76238;PMS7003;65043;48.392;-4.472;2023-10-08T00:18:47;10.00;5.00;3.50
76238;PMS7003;65043;48.392;-4.472;2023-10-08T00:21:16;7.75;7.00;4.25
76238;PMS7003;65043;48.392;-4.472;2023-10-08T00:23:45;10.75;7.50;4.25
76238;PMS7003;65043;48.392;-4.472;2023-10-08T00:26:18;9.75;6.75;3.00
76238;PMS7003;65043;48.392;-4.472;2023-10-08T00:28:52;14.50;8.25;5.50
76238;PMS7003;65043;48.392;-4.472;2023-10-08T00:31:19;9.50;8.00;5.00
76238;PMS7003;65043;48.392;-4.472;2023-10-08T00:33:44;7.75;7.75;5.00
76238;PMS7003;65043;48.392;-4.472;2023-10-08T00:36:10;8.00;6.50;3.00
76238;PMS7003;65043;48.392;-4.472;2023-10-08T00:38:48;8.75;7.75;6.00
76238;PMS7003;65043;48.392;-4.472;2023-10-08T00:41:20;10.50;7.00;3.75
76238;PMS7003;65043;48.392;-4.472;2023-10-08T00:43:53;7.25;6.75;4.25
76238;PMS7003;65043;48.392;-4.472;2023-10-08T00:46:21;8.75;6.00;3.00
76238;PMS7003;65043;48.392;-4.472;2023-10-08T00:48:50;7.50;7.50;5.00
76238;PMS7003;65043;48.392;-4.472;2023-10-08T00:51:20;7.50;6.75;5.00
76238;PMS7003;65043;48.392;-4.472;2023-10-08T00:53:48;7.75;6.25;4.75
76238;PMS7003;65043;48.392;-4.472;2023-10-08T00:56:42;6.25;6.00;4.00
76238;PMS7003;65043;48.392;-4.472;2023-10-08T00:59:22;9.75;9.25;5.25
76238;PMS7003;65043;48.392;-4.472;2023-10-08T01:01:51;7.75;7.75;5.00
76238;PMS7003;65043;48.392;-4.472;2023-10-08T01:04:24;9.50;8.25;6.00
76238;PMS7003;65043;48.392;-4.472;2023-10-08T01:06:53;8.50;7.25;5.00
76238;PMS7003;65043;48.392;-4.472;2023-10-08T01:09:24;7.75;7.75;6.00
76238;PMS7003;65043;48.392;-4.472;2023-10-08T01:12:09;9.00;8.00;6.00
76238;PMS7003;65043;48.392;-4.472;2023-10-08T01:14:59;9.75;8.00;4.25
76238;PMS7003;65043;48.392;-4.472;2023-10-08T01:17:51;7.25;7.25;4.25
76238;PMS7003;65043;48.392;-4.472;2023-10-08T01:20:25;10.25;8.25;4.00
76238;PMS7003;65043;48.392;-4.472;2023-10-08T01:23:14;9.00;6.75;6.00
76238;PMS7003;65043;48.392;-4.472;2023-10-08T01:25:42;9.75;7.00;4.75
76238;PMS7003;65043;48.392;-4.472;2023-10-08T01:28:15;9.75;6.75;4.75
76238;PMS7003;65043;48.392;-4.472;2023-10-08T01:30:55;7.00;7.00;6.75
76238;PMS7003;65043;48.392;-4.472;2023-10-08T01:33:25;12.00;7.75;6.50
76238;PMS7003;65043;48.392;-4.472;2023-10-08T01:36:03;11.25;8.00;6.25
76238;PMS7003;65043;48.392;-4.472;2023-10-08T01:38:32;8.25;7.50;4.00
76238;PMS7003;65043;48.392;-4.472;2023-10-08T01:40:58;8.75;8.75;5.75
76238;PMS7003;65043;48.392;-4.472;2023-10-08T01:43:28;7.75;6.00;4.00
76238;PMS7003;65043;48.392;-4.472;2023-10-08T01:45:54;10.00;6.25;6.00
76238;PMS7003;65043;48.392;-4.472;2023-10-08T01:48:20;6.25;4.25;2.00
76238;PMS7003;65043;48.392;-4.472;2023-10-08T01:50:56;6.50;6.50;4.25
76238;PMS7003;65043;48.392;-4.472;2023-10-08T01:53:27;8.75;6.75;4.00
76238;PMS7003;65043;48.392;-4.472;2023-10-08T01:55:53;7.50;6.00;3.00
76238;PMS7003;65043;48.392;-4.472;2023-10-08T01:58:19;8.25;7.00;4.00
76238;PMS7003;65043;48.392;-4.472;2023-10-08T02:00:46;11.25;9.00;4.50
76238;PMS7003;65043;48.392;-4.472;2023-10-08T02:03:13;7.75;6.50;4.00
76238;PMS7003;65043;48.392;-4.472;2023-10-08T02:05:43;8.25;7.00;4.25
76238;PMS7003;65043;48.392;-4.472;2023-10-08T02:08:10;9.50;7.00;5.25
76238;PMS7003;65043;48.392;-4.472;2023-10-08T02:10:40;7.00;6.50;4.00
76238;PMS7003;65043;48.392;-4.472;2023-10-08T02:13:08;7.25;5.00;4.00
76238;PMS7003;65043;48.392;-4.472;2023-10-08T02:15:40;8.00;6.75;4.00
76238;PMS7003;65043;48.392;-4.472;2023-10-08T02:18:08;9.00;7.25;4.00
76238;PMS7003;65043;48.392;-4.472;2023-10-08T02:20:34;7.75;4.00;4.00
76238;PMS7003;65043;48.392;-4.472;2023-10-08T02:22:59;6.75;6.00;3.50
76238;PMS7003;65043;48.392;-4.472;2023-10-08T02:25:25;10.50;6.75;6.00
76238;PMS7003;65043;48.392;-4.472;2023-10-08T02:27:51;7.75;6.00;3.50
76238;PMS7003;65043;48.392;-4.472;2023-10-08T02:30:17;8.75;6.25;4.00
76238;PMS7003;65043;48.392;-4.472;2023-10-08T02:32:43;7.50;6.75;4.25
76238;PMS7003;65043;48.392;-4.472;2023-10-08T02:35:11;5.75;3.75;2.50
76238;PMS7003;65043;48.392;-4.472;2023-10-08T02:37:38;6.00;4.00;2.00
76238;PMS7003;65043;48.392;-4.472;2023-10-08T02:40:08;4.00;3.25;3.00
76238;PMS7003;65043;48.392;-4.472;2023-10-08T02:42:41;8.00;6.25;3.50
76238;PMS7003;65043;48.392;-4.472;2023-10-08T02:45:09;7.50;5.00;3.75
76238;PMS7003;65043;48.392;-4.472;2023-10-08T02:47:40;3.75;3.75;3.00
76238;PMS7003;65043;48.392;-4.472;2023-10-08T02:50:07;6.25;6.00;3.50
76238;PMS7003;65043;48.392;-4.472;2023-10-08T02:52:33;11.25;6.50;4.00
76238;PMS7003;65043;48.392;-4.472;2023-10-08T02:54:59;6.00;6.00;4.25
76238;PMS7003;65043;48.392;-4.472;2023-10-08T02:57:25;6.00;6.00;3.75
76238;PMS7003;65043;48.392;-4.472;2023-10-08T02:59:54;6.25;5.00;4.25
76238;PMS7003;65043;48.392;-4.472;2023-10-08T03:02:20;8.00;7.00;5.00
76238;PMS7003;65043;48.392;-4.472;2023-10-08T03:04:47;5.50;5.50;4.25
76238;PMS7003;65043;48.392;-4.472;2023-10-08T03:07:16;7.50;7.25;5.25
76238;PMS7003;65043;48.392;-4.472;2023-10-08T03:09:51;7.00;7.00;4.25
76238;PMS7003;65043;48.392;-4.472;2023-10-08T03:12:28;6.75;4.00;2.50
76238;PMS7003;65043;48.392;-4.472;2023-10-08T03:14:57;6.00;4.25;3.00
76238;PMS7003;65043;48.392;-4.472;2023-10-08T03:17:29;4.25;4.25;3.00
76238;PMS7003;65043;48.392;-4.472;2023-10-08T03:19:55;7.00;6.25;4.50
76238;PMS7003;65043;48.392;-4.472;2023-10-08T03:22:44;7.50;6.00;4.00
76238;PMS7003;65043;48.392;-4.472;2023-10-08T03:25:12;7.50;6.00;4.25
76238;PMS7003;65043;48.392;-4.472;2023-10-08T03:27:45;3.50;3.50;3.00
76238;PMS7003;65043;48.392;-4.472;2023-10-08T03:30:10;6.25;5.50;3.00
76238;PMS7003;65043;48.392;-4.472;2023-10-08T03:32:42;7.50;6.00;4.50
76238;PMS7003;65043;48.392;-4.472;2023-10-08T03:35:20;7.75;6.75;6.00
76238;PMS7003;65043;48.392;-4.472;2023-10-08T03:37:53;6.00;6.00;4.25
76238;PMS7003;65043;48.392;-4.472;2023-10-08T03:40:19;8.50;5.75;4.00
76238;PMS7003;65043;48.392;-4.472;2023-10-08T03:42:51;7.00;7.00;5.00
76238;PMS7003;65043;48.392;-4.472;2023-10-08T03:45:17;8.00;6.75;4.25
76238;PMS7003;65043;48.392;-4.472;2023-10-08T03:48:01;6.00;6.00;3.50
76238;PMS7003;65043;48.392;-4.472;2023-10-08T03:50:31;6.50;4.50;3.50
76238;PMS7003;65043;48.392;-4.472;2023-10-08T03:53:05;5.75;5.25;3.50
76238;PMS7003;65043;48.392;-4.472;2023-10-08T03:55:37;4.25;4.25;2.25
76238;PMS7003;65043;48.392;-4.472;2023-10-08T03:58:06;7.75;6.75;5.00
76238;PMS7003;65043;48.392;-4.472;2023-10-08T04:00:44;6.50;6.50;5.00
76238;PMS7003;65043;48.392;-4.472;2023-10-08T04:03:11;9.75;7.00;5.75
76238;PMS7003;65043;48.392;-4.472;2023-10-08T04:05:37;10.50;6.25;4.25
76238;PMS7003;65043;48.392;-4.472;2023-10-08T04:08:24;8.00;6.75;4.25
76238;PMS7003;65043;48.392;-4.472;2023-10-08T04:11:07;5.75;5.75;4.50
76238;PMS7003;65043;48.392;-4.472;2023-10-08T04:13:34;9.50;7.75;5.00
76238;PMS7003;65043;48.392;-4.472;2023-10-08T04:16:04;6.75;5.50;3.00
76238;PMS7003;65043;48.392;-4.472;2023-10-08T04:18:29;5.75;5.75;4.25
76238;PMS7003;65043;48.392;-4.472;2023-10-08T04:20:55;7.00;6.75;5.50
76238;PMS7003;65043;48.392;-4.472;2023-10-08T04:23:29;8.00;7.50;4.50
76238;PMS7003;65043;48.392;-4.472;2023-10-08T04:25:55;8.75;5.50;4.25
76238;PMS7003;65043;48.392;-4.472;2023-10-08T04:28:21;6.00;5.75;4.50
76238;PMS7003;65043;48.392;-4.472;2023-10-08T04:30:47;6.75;5.75;4.25
76238;PMS7003;65043;48.392;-4.472;2023-10-08T04:33:13;4.50;3.50;2.75
76238;PMS7003;65043;48.392;-4.472;2023-10-08T04:35:43;9.50;5.75;4.00
76238;PMS7003;65043;48.392;-4.472;2023-10-08T04:38:37;8.25;7.50;5.50
76238;PMS7003;65043;48.392;-4.472;2023-10-08T04:41:11;7.25;6.25;4.50
76238;PMS7003;65043;48.392;-4.472;2023-10-08T04:43:39;9.50;7.75;5.50
76238;PMS7003;65043;48.392;-4.472;2023-10-08T04:46:10;3.75;3.75;2.75
76238;PMS7003;65043;48.392;-4.472;2023-10-08T04:48:52;8.50;6.00;4.75
76238;PMS7003;65043;48.392;-4.472;2023-10-08T04:51:23;6.75;6.75;4.50
76238;PMS7003;65043;48.392;-4.472;2023-10-08T04:53:51;7.75;6.75;5.75
76238;PMS7003;65043;48.392;-4.472;2023-10-08T04:56:19;9.25;8.25;5.50
76238;PMS7003;65043;48.392;-4.472;2023-10-08T04:58:47;5.00;4.50;2.00
76238;PMS7003;65043;48.392;-4.472;2023-10-08T05:01:16;10.00;6.00;3.75
76238;PMS7003;65043;48.392;-4.472;2023-10-08T05:03:47;6.75;6.25;4.75
76238;PMS7003;65043;48.392;-4.472;2023-10-08T05:06:33;8.50;6.75;4.50
76238;PMS7003;65043;48.392;-4.472;2023-10-08T05:09:02;6.00;6.00;4.50
76238;PMS7003;65043;48.392;-4.472;2023-10-08T05:11:46;7.50;6.75;4.75
76238;PMS7003;65043;48.392;-4.472;2023-10-08T05:14:33;8.75;6.50;4.50
76238;PMS7003;65043;48.392;-4.472;2023-10-08T05:17:10;6.25;5.00;2.50
76238;PMS7003;65043;48.392;-4.472;2023-10-08T05:19:39;6.75;6.00;3.00
76238;PMS7003;65043;48.392;-4.472;2023-10-08T05:22:44;9.75;6.50;5.00
76238;PMS7003;65043;48.392;-4.472;2023-10-08T05:25:13;7.00;7.00;5.00
76238;PMS7003;65043;48.392;-4.472;2023-10-08T05:27:44;7.25;5.00;4.50
76238;PMS7003;65043;48.392;-4.472;2023-10-08T05:32:53;6.50;4.50;4.50
76238;PMS7003;65043;48.392;-4.472;2023-10-08T05:35:37;7.00;4.75;3.00
76238;PMS7003;65043;48.392;-4.472;2023-10-08T05:38:07;4.75;4.75;3.75
76238;PMS7003;65043;48.392;-4.472;2023-10-08T05:40:42;8.75;6.75;5.00
76238;PMS7003;65043;48.392;-4.472;2023-10-08T05:43:24;3.75;2.50;2.50
76238;PMS7003;65043;48.392;-4.472;2023-10-08T05:46:05;6.75;6.75;4.75
76238;PMS7003;65043;48.392;-4.472;2023-10-08T05:48:48;7.25;5.00;3.75
76238;PMS7003;65043;48.392;-4.472;2023-10-08T05:51:47;7.50;6.50;4.50
76238;PMS7003;65043;48.392;-4.472;2023-10-08T05:54:16;6.50;6.50;3.75
76238;PMS7003;65043;48.392;-4.472;2023-10-08T06:02:20;5.75;5.75;4.25
76238;PMS7003;65043;48.392;-4.472;2023-10-08T06:05:01;4.50;4.50;3.75
76238;PMS7003;65043;48.392;-4.472;2023-10-08T06:07:46;6.00;6.00;4.25
76238;PMS7003;65043;48.392;-4.472;2023-10-08T06:13:02;6.50;5.75;5.00
76238;PMS7003;65043;48.392;-4.472;2023-10-08T06:15:49;9.50;5.75;3.75
76238;PMS7003;65043;48.392;-4.472;2023-10-08T06:18:16;5.50;5.50;3.75
76238;PMS7003;65043;48.392;-4.472;2023-10-08T06:20:51;7.00;6.00;4.25
76238;PMS7003;65043;48.392;-4.472;2023-10-08T06:23:19;6.50;5.75;4.00
76238;PMS7003;65043;48.392;-4.472;2023-10-08T06:25:49;5.25;5.25;4.00
76238;PMS7003;65043;48.392;-4.472;2023-10-08T06:28:30;6.50;5.25;4.25
76238;PMS7003;65043;48.392;-4.472;2023-10-08T06:31:00;8.50;6.50;4.50
76238;PMS7003;65043;48.392;-4.472;2023-10-08T06:33:29;8.00;6.25;4.50
76238;PMS7003;65043;48.392;-4.472;2023-10-08T06:36:01;7.25;3.25;2.50
76238;PMS7003;65043;48.392;-4.472;2023-10-08T06:38:33;9.25;5.00;3.50
76238;PMS7003;65043;48.392;-4.472;2023-10-08T06:40:59;6.00;5.50;3.75
76238;PMS7003;65043;48.392;-4.472;2023-10-08T06:43:32;5.50;5.50;4.75
76238;PMS7003;65043;48.392;-4.472;2023-10-08T06:45:59;7.25;5.00;2.50
76238;PMS7003;65043;48.392;-4.472;2023-10-08T06:48:25;5.50;5.50;4.50
76238;PMS7003;65043;48.392;-4.472;2023-10-08T06:50:54;4.25;4.25;3.75
76238;PMS7003;65043;48.392;-4.472;2023-10-08T06:53:22;6.25;5.25;4.00
76238;PMS7003;65043;48.392;-4.472;2023-10-08T06:55:48;5.50;5.50;3.25
76238;PMS7003;65043;48.392;-4.472;2023-10-08T06:58:21;6.25;5.25;3.50
76238;PMS7003;65043;48.392;-4.472;2023-10-08T07:00:54;4.75;4.75;3.50
76238;PMS7003;65043;48.392;-4.472;2023-10-08T07:03:31;5.75;5.75;4.50
76238;PMS7003;65043;48.392;-4.472;2023-10-08T07:06:03;6.00;6.00;3.75
76238;PMS7003;65043;48.392;-4.472;2023-10-08T07:08:41;3.50;3.50;2.75
76238;PMS7003;65043;48.392;-4.472;2023-10-08T07:11:20;6.00;5.50;4.25
76238;PMS7003;65043;48.392;-4.472;2023-10-08T07:13:46;9.00;4.00;3.00
76238;PMS7003;65043;48.392;-4.472;2023-10-08T07:16:12;5.00;5.00;3.25
76238;PMS7003;65043;48.392;-4.472;2023-10-08T07:18:37;6.50;5.00;2.50
76238;PMS7003;65043;48.392;-4.472;2023-10-08T07:21:03;6.50;6.00;3.75
76238;PMS7003;65043;48.392;-4.472;2023-10-08T07:23:37;5.00;5.00;2.75
76238;PMS7003;65043;48.392;-4.472;2023-10-08T07:26:14;9.75;5.75;4.00
76238;PMS7003;65043;48.392;-4.472;2023-10-08T07:28:43;5.50;4.50;3.25
76238;PMS7003;65043;48.392;-4.472;2023-10-08T07:31:17;4.75;4.75;3.25
76238;PMS7003;65043;48.392;-4.472;2023-10-08T07:33:48;5.25;4.50;2.50
76238;PMS7003;65043;48.392;-4.472;2023-10-08T07:36:22;6.00;6.00;3.75
76238;PMS7003;65043;48.392;-4.472;2023-10-08T07:38:51;5.50;3.75;3.00
76238;PMS7003;65043;48.392;-4.472;2023-10-08T07:41:18;6.00;5.50;3.25
76238;PMS7003;65043;48.392;-4.472;2023-10-08T07:43:47;3.50;2.50;1.50
76238;PMS7003;65043;48.392;-4.472;2023-10-08T07:46:22;5.50;5.50;3.25
76238;PMS7003;65043;48.392;-4.472;2023-10-08T07:48:48;6.75;5.00;3.50
76238;PMS7003;65043;48.392;-4.472;2023-10-08T07:51:15;10.75;6.50;3.50
76238;PMS7003;65043;48.392;-4.472;2023-10-08T07:53:42;6.50;6.00;3.25
76238;PMS7003;65043;48.392;-4.472;2023-10-08T07:56:08;4.75;4.00;2.50
76238;PMS7003;65043;48.392;-4.472;2023-10-08T07:58:36;4.50;3.25;2.25
76238;PMS7003;65043;48.392;-4.472;2023-10-08T08:01:08;5.25;5.25;3.50
76238;PMS7003;65043;48.392;-4.472;2023-10-08T08:03:34;2.75;2.75;2.00
76238;PMS7003;65043;48.392;-4.472;2023-10-08T08:06:02;7.00;5.75;3.50
76238;PMS7003;65043;48.392;-4.472;2023-10-08T08:08:43;6.50;4.50;3.00
76238;PMS7003;65043;48.392;-4.472;2023-10-08T08:11:09;4.25;4.25;3.00
76238;PMS7003;65043;48.392;-4.472;2023-10-08T08:13:40;4.75;4.75;3.00
76238;PMS7003;65043;48.392;-4.472;2023-10-08T08:16:13;6.50;5.00;2.75
76238;PMS7003;65043;48.392;-4.472;2023-10-08T08:18:50;5.25;4.75;3.00
76238;PMS7003;65043;48.392;-4.472;2023-10-08T08:21:24;5.00;3.50;2.75
76238;PMS7003;65043;48.392;-4.472;2023-10-08T08:23:50;4.50;3.00;2.00
76238;PMS7003;65043;48.392;-4.472;2023-10-08T08:26:18;3.00;3.00;2.25
76238;PMS7003;65043;48.392;-4.472;2023-10-08T08:28:55;4.00;4.00;2.25
76238;PMS7003;65043;48.392;-4.472;2023-10-08T08:31:26;6.00;6.00;3.00
76238;PMS7003;65043;48.392;-4.472;2023-10-08T08:33:56;5.50;5.50;3.00
76238;PMS7003;65043;48.392;-4.472;2023-10-08T08:36:26;6.25;4.00;3.50
76238;PMS7003;65043;48.392;-4.472;2023-10-08T08:38:55;4.25;4.25;3.50
76238;PMS7003;65043;48.392;-4.472;2023-10-08T08:41:21;5.75;5.75;4.25
76238;PMS7003;65043;48.392;-4.472;2023-10-08T08:43:49;7.25;7.00;4.25
76238;PMS7003;65043;48.392;-4.472;2023-10-08T08:46:22;6.25;6.25;4.25
76238;PMS7003;65043;48.392;-4.472;2023-10-08T08:49:07;13.00;7.00;6.00
76238;PMS7003;65043;48.392;-4.472;2023-10-08T08:51:33;6.25;6.25;5.00
76238;PMS7003;65043;48.392;-4.472;2023-10-08T08:54:00;8.25;8.25;5.50
76238;PMS7003;65043;48.392;-4.472;2023-10-08T08:56:32;7.25;7.25;5.25
76238;PMS7003;65043;48.392;-4.472;2023-10-08T08:59:04;6.50;6.50;6.00
76238;PMS7003;65043;48.392;-4.472;2023-10-08T09:01:29;7.00;7.00;5.00
76238;PMS7003;65043;48.392;-4.472;2023-10-08T09:03:59;13.00;8.00;6.00
76238;PMS7003;65043;48.392;-4.472;2023-10-08T09:06:32;6.00;6.00;5.75
76238;PMS7003;65043;48.392;-4.472;2023-10-08T09:08:59;6.75;6.75;6.00
76238;PMS7003;65043;48.392;-4.472;2023-10-08T09:11:38;6.75;6.75;4.50
76238;PMS7003;65043;48.392;-4.472;2023-10-08T09:14:08;5.75;5.75;4.25
76238;PMS7003;65043;48.392;-4.472;2023-10-08T09:16:35;4.75;4.25;3.00
76238;PMS7003;65043;48.392;-4.472;2023-10-08T09:19:02;6.50;6.50;5.25
76238;PMS7003;65043;48.392;-4.472;2023-10-08T09:21:27;8.50;7.25;5.25
76238;PMS7003;65043;48.392;-4.472;2023-10-08T09:23:55;7.75;7.75;5.50
76238;PMS7003;65043;48.392;-4.472;2023-10-08T09:26:24;8.50;6.75;5.00
76238;PMS7003;65043;48.392;-4.472;2023-10-08T09:28:50;7.00;5.00;3.00
76238;PMS7003;65043;48.392;-4.472;2023-10-08T09:31:17;4.00;4.00;3.50
76238;PMS7003;65043;48.392;-4.472;2023-10-08T09:33:43;4.50;3.50;2.00
76238;PMS7003;65043;48.392;-4.472;2023-10-08T09:36:22;3.75;3.75;3.00
76238;PMS7003;65043;48.392;-4.472;2023-10-08T09:38:58;5.00;5.00;3.00
76238;PMS7003;65043;48.392;-4.472;2023-10-08T09:41:27;5.00;5.00;3.00
76238;PMS7003;65043;48.392;-4.472;2023-10-08T09:44:00;6.50;4.50;4.00
76238;PMS7003;65043;48.392;-4.472;2023-10-08T09:46:29;3.00;3.00;2.00
76238;PMS7003;65043;48.392;-4.472;2023-10-08T09:49:02;5.25;4.25;3.00
76238;PMS7003;65043;48.392;-4.472;2023-10-08T09:51:43;5.25;3.50;3.25
76238;PMS7003;65043;48.392;-4.472;2023-10-08T09:54:20;6.00;4.00;3.00
76238;PMS7003;65043;48.392;-4.472;2023-10-08T09:57:13;3.00;3.00;3.00
76238;PMS7003;65043;48.392;-4.472;2023-10-08T09:59:46;3.00;3.00;2.00
76238;PMS7003;65043;48.392;-4.472;2023-10-08T10:02:18;4.00;4.00;3.00
76238;PMS7003;65043;48.392;-4.472;2023-10-08T10:04:47;5.50;4.25;2.00
76238;PMS7003;65043;48.392;-4.472;2023-10-08T10:07:20;4.00;4.00;3.00
76238;PMS7003;65043;48.392;-4.472;2023-10-08T10:09:52;5.00;4.00;3.00
76238;PMS7003;65043;48.392;-4.472;2023-10-08T10:12:20;5.00;4.50;3.00
76238;PMS7003;65043;48.392;-4.472;2023-10-08T10:14:52;4.50;4.50;3.00
76238;PMS7003;65043;48.392;-4.472;2023-10-08T10:17:39;8.25;6.75;4.00
76238;PMS7003;65043;48.392;-4.472;2023-10-08T10:20:16;7.25;5.00;4.00
76238;PMS7003;65043;48.392;-4.472;2023-10-08T10:22:50;4.00;4.00;2.75
76238;PMS7003;65043;48.392;-4.472;2023-10-08T10:25:18;7.25;4.25;3.00
76238;PMS7003;65043;48.392;-4.472;2023-10-08T10:30:31;6.00;5.75;4.00
76238;PMS7003;65043;48.392;-4.472;2023-10-08T10:32:59;6.25;5.50;3.50
76238;PMS7003;65043;48.392;-4.472;2023-10-08T10:35:30;7.50;4.50;3.50
76238;PMS7003;65043;48.392;-4.472;2023-10-08T10:41:12;4.00;4.00;3.00
76238;PMS7003;65043;48.392;-4.472;2023-10-08T10:43:48;4.00;4.00;3.00
76238;PMS7003;65043;48.392;-4.472;2023-10-08T10:46:36;5.50;3.75;3.25
76238;PMS7003;65043;48.392;-4.472;2023-10-08T10:49:06;7.25;6.25;4.25
76238;PMS7003;65043;48.392;-4.472;2023-10-08T10:51:43;5.25;5.25;3.50
76238;PMS7003;65043;48.392;-4.472;2023-10-08T10:54:15;5.75;5.00;4.00
76238;PMS7003;65043;48.392;-4.472;2023-10-08T10:56:49;5.25;4.25;3.00
76238;PMS7003;65043;48.392;-4.472;2023-10-08T10:59:34;5.25;3.75;3.00
76238;PMS7003;65043;48.392;-4.472;2023-10-08T11:02:03;3.50;3.00;3.00
76238;PMS7003;65043;48.392;-4.472;2023-10-08T11:04:55;3.50;3.50;2.50
76238;PMS7003;65043;48.392;-4.472;2023-10-08T11:07:26;5.75;4.75;2.50
76238;PMS7003;65043;48.392;-4.472;2023-10-08T11:09:52;3.50;2.00;2.00
76238;PMS7003;65043;48.392;-4.472;2023-10-08T11:12:22;3.00;3.00;2.00
76238;PMS7003;65043;48.392;-4.472;2023-10-08T11:15:03;4.25;3.00;2.00
76238;PMS7003;65043;48.392;-4.472;2023-10-08T11:17:31;2.75;2.50;2.00
76238;PMS7003;65043;48.392;-4.472;2023-10-08T11:20:22;4.00;2.00;2.00
76238;PMS7003;65043;48.392;-4.472;2023-10-08T11:23:08;4.00;3.25;2.50
76238;PMS7003;65043;48.392;-4.472;2023-10-08T11:26:04;5.25;4.00;3.25
76238;PMS7003;65043;48.392;-4.472;2023-10-08T11:28:42;4.00;4.00;2.00
76238;PMS7003;65043;48.392;-4.472;2023-10-08T11:31:11;7.50;5.00;3.00
76238;PMS7003;65043;48.392;-4.472;2023-10-08T11:33:42;6.25;5.75;3.00
76238;PMS7003;65043;48.392;-4.472;2023-10-08T11:36:19;3.50;3.50;2.00
76238;PMS7003;65043;48.392;-4.472;2023-10-08T11:38:51;3.00;3.00;2.25
76238;PMS7003;65043;48.392;-4.472;2023-10-08T11:41:18;2.50;2.50;2.00
76238;PMS7003;65043;48.392;-4.472;2023-10-08T11:43:48;2.00;2.00;2.00
76238;PMS7003;65043;48.392;-4.472;2023-10-08T11:46:29;3.00;3.00;2.25
76238;PMS7003;65043;48.392;-4.472;2023-10-08T11:49:05;3.00;3.00;2.00
76238;PMS7003;65043;48.392;-4.472;2023-10-08T11:51:34;3.75;3.75;2.50
76238;PMS7003;65043;48.392;-4.472;2023-10-08T11:54:00;4.25;3.00;2.00
76238;PMS7003;65043;48.392;-4.472;2023-10-08T11:56:30;5.00;3.00;2.50
76238;PMS7003;65043;48.392;-4.472;2023-10-08T11:58:58;3.00;3.00;1.50
76238;PMS7003;65043;48.392;-4.472;2023-10-08T12:01:26;3.75;3.75;2.00
76238;PMS7003;65043;48.392;-4.472;2023-10-08T12:03:55;3.00;3.00;2.00
76238;PMS7003;65043;48.392;-4.472;2023-10-08T12:06:24;5.25;3.75;2.75
76238;PMS7003;65043;48.392;-4.472;2023-10-08T12:08:50;5.75;3.00;2.00
76238;PMS7003;65043;48.392;-4.472;2023-10-08T12:11:18;3.25;3.00;2.00
76238;PMS7003;65043;48.392;-4.472;2023-10-08T12:13:48;2.50;2.50;2.00
76238;PMS7003;65043;48.392;-4.472;2023-10-08T12:16:15;2.00;1.25;1.25
76238;PMS7003;65043;48.392;-4.472;2023-10-08T12:18:46;5.50;2.25;2.00
76238;PMS7003;65043;48.392;-4.472;2023-10-08T12:21:14;2.75;1.00;1.00
76238;PMS7003;65043;48.392;-4.472;2023-10-08T12:23:42;4.00;4.00;2.00
76238;PMS7003;65043;48.392;-4.472;2023-10-08T12:26:10;4.00;4.00;2.25
76238;PMS7003;65043;48.392;-4.472;2023-10-08T12:28:40;4.75;4.00;2.00
76238;PMS7003;65043;48.392;-4.472;2023-10-08T12:31:13;4.00;2.50;1.75
76238;PMS7003;65043;48.392;-4.472;2023-10-08T12:33:49;5.00;3.00;3.00
76238;PMS7003;65043;48.392;-4.472;2023-10-08T12:36:22;2.00;2.00;2.00
76238;PMS7003;65043;48.392;-4.472;2023-10-08T12:38:51;3.75;2.00;2.00
76238;PMS7003;65043;48.392;-4.472;2023-10-08T12:41:22;3.00;2.25;1.25
76238;PMS7003;65043;48.392;-4.472;2023-10-08T12:43:51;4.00;3.50;2.00
76238;PMS7003;65043;48.392;-4.472;2023-10-08T12:46:18;3.75;3.75;2.00
76238;PMS7003;65043;48.392;-4.472;2023-10-08T12:48:49;2.50;2.50;1.50
76238;PMS7003;65043;48.392;-4.472;2023-10-08T12:51:18;4.25;2.00;1.00
76238;PMS7003;65043;48.392;-4.472;2023-10-08T12:53:48;4.00;2.25;2.00
76238;PMS7003;65043;48.392;-4.472;2023-10-08T12:56:24;3.50;3.50;2.00
76238;PMS7003;65043;48.392;-4.472;2023-10-08T12:59:11;3.25;3.25;3.00
76238;PMS7003;65043;48.392;-4.472;2023-10-08T13:01:45;2.50;2.50;1.75
76238;PMS7003;65043;48.392;-4.472;2023-10-08T13:04:18;3.00;3.00;1.25
76238;PMS7003;65043;48.392;-4.472;2023-10-08T13:06:57;3.25;3.25;2.25
76238;PMS7003;65043;48.392;-4.472;2023-10-08T13:09:26;3.00;2.75;2.00
76238;PMS7003;65043;48.392;-4.472;2023-10-08T13:11:55;2.75;2.75;2.00
76238;PMS7003;65043;48.392;-4.472;2023-10-08T13:14:24;1.25;1.25;1.00
76238;PMS7003;65043;48.392;-4.472;2023-10-08T13:16:50;4.00;4.00;2.00
76238;PMS7003;65043;48.392;-4.472;2023-10-08T13:19:18;2.00;2.00;2.00
76238;PMS7003;65043;48.392;-4.472;2023-10-08T13:21:44;4.00;2.00;1.00
76238;PMS7003;65043;48.392;-4.472;2023-10-08T13:24:10;2.00;2.00;1.00
76238;PMS7003;65043;48.392;-4.472;2023-10-08T13:26:36;3.00;3.00;2.00
76238;PMS7003;65043;48.392;-4.472;2023-10-08T13:29:03;3.00;2.00;2.00
76238;PMS7003;65043;48.392;-4.472;2023-10-08T13:31:30;2.00;0.00;0.00
76238;PMS7003;65043;48.392;-4.472;2023-10-08T13:33:56;2.75;1.00;0.75
76238;PMS7003;65043;48.392;-4.472;2023-10-08T13:36:22;3.00;2.00;1.25
76238;PMS7003;65043;48.392;-4.472;2023-10-08T13:38:49;1.25;1.25;1.00
76238;PMS7003;65043;48.392;-4.472;2023-10-08T13:41:15;2.25;2.25;2.00
76238;PMS7003;65043;48.392;-4.472;2023-10-08T13:43:40;1.75;1.75;1.25
76238;PMS7003;65043;48.392;-4.472;2023-10-08T13:46:10;2.00;2.00;2.00
76238;PMS7003;65043;48.392;-4.472;2023-10-08T13:48:40;3.25;2.00;1.00
76238;PMS7003;65043;48.392;-4.472;2023-10-08T13:51:07;2.25;2.25;1.25
76238;PMS7003;65043;48.392;-4.472;2023-10-08T13:53:39;1.00;1.00;1.00
76238;PMS7003;65043;48.392;-4.472;2023-10-08T13:56:05;0.25;0.00;0.00
76238;PMS7003;65043;48.392;-4.472;2023-10-08T13:58:31;3.25;2.00;1.25
76238;PMS7003;65043;48.392;-4.472;2023-10-08T14:01:00;2.75;1.25;1.25
76238;PMS7003;65043;48.392;-4.472;2023-10-08T14:03:29;4.00;2.00;1.00
76238;PMS7003;65043;48.392;-4.472;2023-10-08T14:05:59;4.00;2.25;2.00
76238;PMS7003;65043;48.392;-4.472;2023-10-08T14:08:29;2.00;2.00;1.00
76238;PMS7003;65043;48.392;-4.472;2023-10-08T14:10:55;2.50;2.50;1.00
76238;PMS7003;65043;48.392;-4.472;2023-10-08T14:13:28;1.00;1.00;1.00
76238;PMS7003;65043;48.392;-4.472;2023-10-08T14:16:00;1.00;1.00;1.00
76238;PMS7003;65043;48.392;-4.472;2023-10-08T14:18:33;4.25;3.00;1.50
76238;PMS7003;65043;48.392;-4.472;2023-10-08T14:21:09;2.25;2.00;1.75
76238;PMS7003;65043;48.392;-4.472;2023-10-08T14:23:38;1.00;1.00;1.00
76238;PMS7003;65043;48.392;-4.472;2023-10-08T14:26:08;2.00;1.75;1.00
76238;PMS7003;65043;48.392;-4.472;2023-10-08T14:28:34;1.25;1.25;1.00
76238;PMS7003;65043;48.392;-4.472;2023-10-08T14:31:18;2.00;2.00;1.75
76238;PMS7003;65043;48.392;-4.472;2023-10-08T14:33:47;4.00;2.25;1.25
76238;PMS7003;65043;48.392;-4.472;2023-10-08T14:36:40;2.00;2.00;1.25
76238;PMS7003;65043;48.392;-4.472;2023-10-08T14:39:24;3.50;2.00;1.00
76238;PMS7003;65043;48.392;-4.472;2023-10-08T14:42:08;1.50;1.50;1.25
76238;PMS7003;65043;48.392;-4.472;2023-10-08T14:44:52;1.75;1.50;1.00
76238;PMS7003;65043;48.392;-4.472;2023-10-08T14:47:17;3.00;2.00;1.00
76238;PMS7003;65043;48.392;-4.472;2023-10-08T14:49:44;3.50;1.25;1.00
76238;PMS7003;65043;48.392;-4.472;2023-10-08T14:52:11;4.25;2.50;1.00